createdAt,value
2023-04-15T00:03:03.172Z,92227.75
2023-04-15T00:06:06.821Z,92230.81
2023-04-15T00:09:09.984Z,92222.91
2023-04-15T00:12:13.923Z,92224.41
2023-04-15T00:15:17.222Z,92221.75
2023-04-15T00:18:20.319Z,92214.69
2023-04-15T00:21:23.565Z,92209.38
2023-04-15T00:24:27.335Z,92207.69
2023-04-15T00:27:31.230Z,92206.09
2023-04-15T00:30:34.470Z,92205.59
2023-04-15T00:33:37.772Z,92201.47
2023-04-15T00:36:40.969Z,92208.22
2023-04-15T00:39:44.686Z,92192.63
2023-04-15T00:42:47.869Z,92196.56
2023-04-15T00:45:53.173Z,92187.94
2023-04-15T00:48:56.865Z,92179.47
2023-04-15T00:52:00.078Z,92186.69
2023-04-15T00:55:05.239Z,92180.88
2023-04-15T00:58:08.625Z,92170.84
2023-04-15T01:01:12.222Z,92164.00
2023-04-15T01:04:17.208Z,92151.78
2023-04-15T01:07:20.461Z,92141.19
2023-04-15T01:10:23.721Z,92141.75
2023-04-15T01:13:27.725Z,92131.34
2023-04-15T01:16:30.970Z,92125.44
2023-04-15T01:19:34.627Z,92118.41
2023-04-15T01:22:39.082Z,92107.16
2023-04-15T01:25:45.126Z,92105.22
2023-04-15T01:28:48.769Z,92109.97
2023-04-15T01:31:53.768Z,92099.47
2023-04-15T01:34:57.285Z,92093.03
2023-04-15T01:38:07.059Z,92086.72
2023-04-15T01:41:10.271Z,92075.84
2023-04-15T01:44:13.451Z,92069.25
2023-04-15T01:47:16.713Z,92063.34
2023-04-15T01:50:21.096Z,92065.28
2023-04-15T01:53:25.222Z,92056.72
2023-04-15T01:56:28.507Z,92052.09
2023-04-15T01:59:32.636Z,92048.03
2023-04-15T02:02:36.599Z,92050.56
2023-04-15T02:05:39.883Z,92048.75
2023-04-15T02:08:43.330Z,92043.00
2023-04-15T02:11:47.116Z,92046.66
2023-04-15T02:14:50.314Z,92035.94
2023-04-15T02:17:55.944Z,92037.59
2023-04-15T02:27:21.236Z,92020.63
2023-04-15T02:30:26.675Z,92022.88
2023-04-15T02:33:30.050Z,92017.50
2023-04-15T02:36:35.220Z,92008.91
2023-04-15T02:39:38.660Z,92009.38
2023-04-15T02:42:43.475Z,92007.94
2023-04-15T02:45:49.631Z,91988.25
2023-04-15T02:48:55.884Z,91988.25
2023-04-15T02:52:01.408Z,91976.34
2023-04-15T02:55:06.009Z,91966.34
2023-04-15T02:58:09.794Z,91963.47
2023-04-15T03:01:13.418Z,91955.38
2023-04-15T03:04:17.830Z,91955.22
2023-04-15T03:07:21.184Z,91938.38
2023-04-15T03:10:24.585Z,91926.50
2023-04-15T03:13:27.952Z,91931.47
2023-04-15T03:16:33.602Z,91924.94
2023-04-15T03:19:36.802Z,91913.66
2023-04-15T03:22:40.350Z,91906.66
2023-04-15T03:25:45.937Z,91892.06
2023-04-15T03:28:51.026Z,91888.88
2023-04-15T03:31:55.402Z,91882.81
2023-04-15T03:34:58.628Z,91882.72
2023-04-15T03:38:01.770Z,91880.75
2023-04-15T03:41:04.959Z,91869.56
2023-04-15T03:44:08.422Z,91873.56
2023-04-15T03:47:11.665Z,91872.78
2023-04-15T03:50:14.784Z,91854.66
2023-04-15T03:53:17.936Z,91841.66
2023-04-15T03:56:21.242Z,91845.03
2023-04-15T03:59:24.465Z,91836.81
2023-04-15T04:02:28.979Z,91822.09
2023-04-15T04:05:32.509Z,91809.09
2023-04-15T04:08:35.692Z,91805.88
2023-04-15T04:11:38.862Z,91801.91
2023-04-15T04:14:41.981Z,91800.06
2023-04-15T04:17:45.165Z,91801.25
2023-04-15T04:20:48.451Z,91798.44
2023-04-15T04:23:51.942Z,91789.13
2023-04-15T04:26:55.103Z,91785.91
2023-04-15T04:29:58.300Z,91779.28
2023-04-15T04:33:01.546Z,91786.00
2023-04-15T04:36:05.051Z,91778.03
2023-04-15T04:39:08.625Z,91773.91
2023-04-15T04:42:11.910Z,91768.53
2023-04-15T04:45:15.902Z,91764.41
2023-04-15T04:48:19.317Z,91759.66
2023-04-15T04:51:22.608Z,91748.63
2023-04-15T04:54:25.828Z,91741.84
2023-04-15T04:57:29.052Z,91738.13
2023-04-15T05:00:32.177Z,91738.28
2023-04-15T05:03:35.530Z,91731.09
2023-04-15T05:06:38.973Z,91729.63
2023-04-15T05:09:43.389Z,91717.16
2023-04-15T05:12:46.668Z,91719.13
2023-04-15T05:15:49.897Z,91713.91
2023-04-15T05:18:53.283Z,91703.44
2023-04-15T05:21:56.544Z,91693.78
2023-04-15T05:24:59.747Z,91695.63
2023-04-15T05:28:03.038Z,91690.00
2023-04-15T05:31:07.135Z,91684.75
2023-04-15T05:34:10.913Z,91679.19
2023-04-15T05:37:18.297Z,91674.13
2023-04-15T05:40:21.750Z,91673.13
2023-04-15T05:43:24.937Z,91665.34
2023-04-15T05:46:28.573Z,91648.38
2023-04-15T05:49:32.543Z,91656.34
2023-04-15T05:52:35.771Z,91649.09
2023-04-15T05:55:39.216Z,91640.09
2023-04-15T05:58:42.451Z,91642.41
2023-04-15T06:01:45.995Z,91638.88
2023-04-15T06:04:49.230Z,91641.78
2023-04-15T06:07:53.132Z,91628.59
2023-04-15T06:10:56.673Z,91623.53
2023-04-15T06:13:59.903Z,91621.34
2023-04-15T06:17:03.119Z,91610.53
2023-04-15T06:20:06.638Z,91610.13
2023-04-15T06:23:09.864Z,91608.56
2023-04-15T06:26:13.039Z,91606.47
2023-04-15T06:29:16.235Z,91594.94
2023-04-15T06:32:21.606Z,91590.50
2023-04-15T06:35:25.002Z,91588.31
2023-04-15T06:38:28.313Z,91578.91
2023-04-15T06:41:31.837Z,91580.19
2023-04-15T06:44:35.093Z,91573.38
2023-04-15T06:47:38.313Z,91565.25
2023-04-15T06:50:42.162Z,91551.84
2023-04-15T06:53:45.407Z,91555.44
2023-04-15T06:56:48.780Z,91543.56
2023-04-15T06:59:53.331Z,91552.53
2023-04-15T07:02:57.258Z,91542.06
2023-04-15T07:06:00.692Z,91536.06
2023-04-15T07:09:05.907Z,91530.41
2023-04-15T07:12:09.282Z,91520.38
2023-04-15T07:15:13.054Z,91521.63
2023-04-15T07:18:16.192Z,91510.19
2023-04-15T07:21:19.442Z,91519.91
2023-04-15T07:24:24.001Z,91523.41
2023-04-15T07:27:27.972Z,91503.81
2023-04-15T07:30:31.275Z,91497.41
2023-04-15T07:33:34.435Z,91495.03
2023-04-15T07:36:37.782Z,91502.75
2023-04-15T07:39:41.082Z,91487.88
2023-04-15T07:42:44.538Z,91480.81
2023-04-15T07:45:47.834Z,91478.03
2023-04-15T07:48:51.702Z,91472.72
2023-04-15T07:51:54.994Z,91457.94
2023-04-15T07:54:58.248Z,91451.03
2023-04-15T07:58:01.519Z,91447.88
2023-04-15T08:01:05.864Z,91455.84
2023-04-15T08:04:09.291Z,91450.16
2023-04-15T08:07:12.792Z,91438.13
2023-04-15T08:10:17.624Z,91450.84
2023-04-15T08:13:21.702Z,91448.88
2023-04-15T08:16:26.529Z,91430.72
2023-04-15T08:19:29.394Z,91430.16
2023-04-15T08:22:32.749Z,91421.16
2023-04-15T08:25:36.062Z,91406.59
2023-04-15T08:28:41.291Z,91404.19
2023-04-15T08:31:44.779Z,91397.41
2023-04-15T08:34:48.158Z,91399.78
2023-04-15T08:37:53.859Z,91384.25
2023-04-15T08:40:59.375Z,91383.38
2023-04-15T08:44:06.583Z,91377.94
2023-04-15T08:47:10.638Z,91376.31
2023-04-15T08:50:16.194Z,91376.94
2023-04-15T08:53:19.477Z,91370.84
2023-04-15T08:56:26.726Z,91363.84
2023-04-15T08:59:32.504Z,91363.53
2023-04-15T09:02:36.796Z,91362.84
2023-04-15T09:05:40.337Z,91360.91
2023-04-15T09:08:43.517Z,91361.94
2023-04-15T09:11:48.867Z,91341.59
2023-04-15T09:14:53.020Z,91369.00
2023-04-15T09:18:00.384Z,91351.66
2023-04-15T09:21:09.746Z,91352.38
2023-04-15T09:24:13.092Z,91340.13
2023-04-15T09:27:17.411Z,91350.63
2023-04-15T09:30:21.337Z,91343.09
2023-04-15T09:33:26.798Z,91347.94
2023-04-15T09:36:33.294Z,91348.25
2023-04-15T09:39:51.323Z,91339.34
2023-04-15T09:42:58.411Z,91341.97
2023-04-15T09:46:01.952Z,91331.63
2023-04-15T09:49:12.664Z,91325.41
2023-04-15T09:52:16.249Z,91324.53
2023-04-15T09:55:20.111Z,91318.09
2023-04-15T09:58:24.879Z,91313.09
2023-04-15T10:01:28.578Z,91310.94
2023-04-15T10:04:33.602Z,91311.56
2023-04-15T10:07:36.654Z,91293.19
2023-04-15T10:10:40.371Z,91296.06
2023-04-15T10:13:44.129Z,91298.88
2023-04-15T10:16:49.727Z,91301.69
2023-04-15T10:19:55.192Z,91306.00
2023-04-15T10:22:58.765Z,91296.75
2023-04-15T10:26:02.541Z,91290.13
2023-04-15T10:29:06.578Z,91296.69
2023-04-15T10:32:11.398Z,91294.13
2023-04-15T10:35:15.030Z,91286.53
2023-04-15T10:38:44.552Z,91287.25
2023-04-15T10:42:06.927Z,91294.59
2023-04-15T10:45:19.342Z,91296.56
2023-04-15T10:48:22.502Z,91292.63
2023-04-15T10:51:31.396Z,91290.44
2023-04-15T10:54:36.860Z,91292.09
2023-04-15T10:57:41.780Z,91285.84
2023-04-15T11:00:51.607Z,91289.28
2023-04-15T11:03:56.798Z,91287.09
2023-04-15T11:07:09.006Z,91274.47
2023-04-15T11:10:14.915Z,91275.84
2023-04-15T11:13:27.394Z,91275.97
2023-04-15T11:16:30.599Z,91277.44
2023-04-15T11:19:40.181Z,91268.44
2023-04-15T11:22:51.244Z,91260.81
2023-04-15T11:25:57.763Z,91249.34
2023-04-15T11:29:02.323Z,91236.44
2023-04-15T11:32:11.057Z,91235.91
2023-04-15T11:35:14.402Z,91241.94
2023-04-15T11:38:17.726Z,91248.03
2023-04-15T11:41:24.518Z,91264.47
2023-04-15T11:44:27.707Z,91276.44
2023-04-15T11:47:30.909Z,91274.81
2023-04-15T11:50:34.814Z,91273.94
2023-04-15T11:53:43.683Z,91277.44
2023-04-15T11:56:52.534Z,91281.53
2023-04-15T11:59:56.291Z,91279.03
2023-04-15T12:03:15.819Z,91277.13
2023-04-15T12:06:24.161Z,91277.19
2023-04-15T12:09:27.719Z,91283.13
2023-04-15T12:12:31.587Z,91279.94
2023-04-15T12:15:34.842Z,91276.81
2023-04-15T12:18:41.120Z,91278.13
2023-04-15T12:21:49.417Z,91269.03
2023-04-15T12:24:58.026Z,91268.53
2023-04-15T12:28:01.294Z,91271.34
2023-04-15T12:31:11.571Z,91268.75
2023-04-15T12:34:16.182Z,91272.03
2023-04-15T12:37:23.297Z,91272.84
2023-04-15T12:40:26.502Z,91272.28
2023-04-15T12:43:29.722Z,91268.41
2023-04-15T12:46:33.631Z,91267.69
2023-04-15T12:49:37.193Z,91275.50
2023-04-15T12:55:45.127Z,91271.25
2023-04-15T12:58:48.265Z,91268.09
2023-04-15T13:01:52.937Z,91268.69
2023-04-15T13:04:56.494Z,91271.88
2023-04-15T13:07:59.883Z,91267.16
2023-04-15T13:14:08.311Z,91267.75
2023-04-15T13:17:12.238Z,91265.75
2023-04-15T13:20:16.052Z,91267.03
2023-04-15T13:23:19.396Z,91268.31
2023-04-15T13:26:23.016Z,91263.16
2023-04-15T13:29:26.578Z,91256.09
2023-04-15T13:32:29.724Z,91252.81
2023-04-15T13:35:36.177Z,91255.97
2023-04-15T13:38:39.358Z,91247.53
2023-04-15T13:41:42.509Z,91248.84
2023-04-15T13:44:45.703Z,91250.91
2023-04-15T13:47:49.040Z,91239.28
2023-04-15T13:50:52.220Z,91227.66
2023-04-15T13:53:55.497Z,91224.50
2023-04-15T13:56:58.842Z,91231.78
2023-04-15T14:00:02.129Z,91212.28
2023-04-15T14:03:09.502Z,91214.78
2023-04-15T14:06:12.857Z,91218.56
2023-04-15T14:09:16.395Z,91211.34
2023-04-15T14:12:19.639Z,91210.22
2023-04-15T14:15:22.877Z,91203.81
2023-04-15T14:18:26.480Z,91207.88
2023-04-15T14:21:30.696Z,91199.44
2023-04-15T14:24:33.840Z,91197.38
2023-04-15T14:27:37.094Z,91188.03
2023-04-15T14:30:40.307Z,91186.47
2023-04-15T14:33:43.554Z,91190.31
2023-04-15T14:36:46.845Z,91179.06
2023-04-15T14:39:50.140Z,91169.38
2023-04-15T14:42:53.415Z,91174.72
2023-04-15T14:45:56.805Z,91154.50
2023-04-15T14:49:00.047Z,91159.91
2023-04-15T14:52:03.249Z,91152.91
2023-04-15T14:55:08.283Z,91148.38
2023-04-15T14:58:11.535Z,91142.47
2023-04-15T15:01:16.452Z,91138.72
2023-04-15T15:04:19.407Z,91137.00
2023-04-15T15:07:23.779Z,91135.53
2023-04-15T15:10:32.634Z,91124.69
2023-04-15T15:13:49.728Z,91127.75
2023-04-15T15:16:53.032Z,91128.88
2023-04-15T15:19:56.539Z,91117.78
2023-04-15T15:22:59.769Z,91117.81
2023-04-15T15:26:03.084Z,91111.97
2023-04-15T15:29:06.661Z,91108.00
2023-04-15T15:32:09.971Z,91114.44
2023-04-15T15:35:13.289Z,91100.88
2023-04-15T15:38:17.227Z,91110.66
2023-04-15T15:41:20.336Z,91107.28
2023-04-15T15:44:23.510Z,91102.81
2023-04-15T15:47:29.649Z,91097.78
2023-04-15T15:50:33.047Z,91097.78
2023-04-15T15:53:36.331Z,91097.19
2023-04-15T15:56:40.096Z,91096.63
2023-04-15T15:59:44.583Z,91091.59
2023-04-15T16:05:53.702Z,91080.53
2023-04-15T16:08:56.865Z,91075.94
2023-04-15T16:12:00.148Z,91068.16
2023-04-15T16:15:04.478Z,91061.00
2023-04-15T16:18:07.772Z,91068.84
2023-04-15T16:21:11.140Z,91063.78
2023-04-15T16:24:15.243Z,91043.56
2023-04-15T16:27:18.441Z,91054.59
2023-04-15T16:30:22.245Z,91046.19
2023-04-15T16:33:25.700Z,91039.69
2023-04-15T16:36:29.377Z,91034.44
2023-04-15T16:39:32.551Z,91025.44
2023-04-15T16:42:35.726Z,91030.03
2023-04-15T16:45:39.147Z,91018.97
2023-04-15T16:48:42.387Z,91022.25
2023-04-15T16:51:45.595Z,91014.50
2023-04-15T16:54:48.738Z,91013.75
2023-04-15T16:58:01.426Z,91002.13
2023-04-15T17:01:06.351Z,91001.41
2023-04-15T17:04:09.614Z,90998.25
2023-04-15T17:07:12.771Z,91011.94
2023-04-15T17:10:15.984Z,90989.78
2023-04-15T17:13:19.131Z,90982.69
2023-04-15T17:16:22.322Z,90975.66
2023-04-15T17:19:25.646Z,90975.75
2023-04-15T17:22:28.793Z,90965.50
2023-04-15T17:25:31.960Z,90960.34
2023-04-15T17:28:35.153Z,90957.09
2023-04-15T17:31:38.431Z,90954.59
2023-04-15T17:34:49.681Z,90952.56
2023-04-15T17:37:54.387Z,90955.13
2023-04-15T17:40:57.618Z,90944.19
2023-04-15T17:44:00.909Z,90944.19
2023-04-15T17:47:04.121Z,90941.63
2023-04-15T17:50:10.776Z,90935.84
2023-04-15T17:53:13.902Z,90929.47
2023-04-15T17:56:17.106Z,90928.41
2023-04-15T17:59:20.327Z,90916.84
2023-04-15T18:02:23.645Z,90917.66
2023-04-15T18:05:27.071Z,90915.69
2023-04-15T18:08:30.255Z,90907.88
2023-04-15T18:11:34.209Z,90905.94
2023-04-15T18:14:37.774Z,90906.53
2023-04-15T18:17:41.179Z,90905.84
2023-04-15T18:20:45.742Z,90894.81
2023-04-15T18:23:48.855Z,90896.06
2023-04-15T18:26:53.005Z,90894.06
2023-04-15T18:29:56.154Z,90894.19
2023-04-15T18:32:59.315Z,90891.50
2023-04-15T18:36:03.292Z,90891.47
2023-04-15T18:39:06.739Z,90883.84
2023-04-15T18:42:10.071Z,90876.06
2023-04-15T18:45:13.358Z,90877.47
2023-04-15T18:48:18.199Z,90872.38
2023-04-15T18:51:21.389Z,90863.41
2023-04-15T18:54:24.694Z,90871.22
2023-04-15T18:57:31.515Z,90866.69
2023-04-15T19:00:37.083Z,90871.34
2023-04-15T19:03:43.024Z,90852.44
2023-04-15T19:06:47.455Z,90861.56
2023-04-15T19:09:50.648Z,90847.88
2023-04-15T19:12:53.773Z,90844.00
2023-04-15T19:15:56.992Z,90844.00
2023-04-15T19:19:00.195Z,90841.41
2023-04-15T19:22:04.039Z,90836.69
2023-04-15T19:25:07.696Z,90830.09
2023-04-15T19:28:10.889Z,90839.88
2023-04-15T19:31:14.316Z,90830.91
2023-04-15T19:34:17.852Z,90835.47
2023-04-15T19:37:21.475Z,90842.00
2023-04-15T19:40:24.788Z,90825.81
2023-04-15T19:43:28.078Z,90826.34
2023-04-15T19:46:31.481Z,90826.34
2023-04-15T19:49:34.691Z,90821.19
2023-04-15T19:52:37.950Z,90822.56
2023-04-15T19:55:41.232Z,90819.34
2023-04-15T19:58:47.440Z,90815.53
2023-04-15T20:01:50.770Z,90815.56
2023-04-15T20:04:54.036Z,90819.50
2023-04-15T20:07:59.316Z,90805.94
2023-04-15T20:11:03.220Z,90798.94
2023-04-15T20:14:06.352Z,90798.97
2023-04-15T20:17:09.484Z,90804.88
2023-04-15T20:20:12.627Z,90796.44
2023-04-15T20:23:15.938Z,90784.06
2023-04-15T20:26:19.076Z,90788.00
2023-04-15T20:29:22.235Z,90777.00
2023-04-15T20:32:25.503Z,90780.88
2023-04-15T20:35:31.482Z,90775.09
2023-04-15T20:38:34.731Z,90773.19
2023-04-15T20:41:37.899Z,90768.63
2023-04-15T20:44:41.322Z,90764.22
2023-04-15T20:47:44.579Z,90760.41
2023-04-15T20:50:47.744Z,90753.97
2023-04-15T20:53:50.889Z,90756.00
2023-04-15T20:56:54.022Z,90750.69
2023-04-15T20:59:57.222Z,90752.63
2023-04-15T21:03:00.683Z,90747.44
2023-04-15T21:06:03.916Z,90735.09
2023-04-15T21:09:07.451Z,90727.94
2023-04-15T21:12:12.022Z,90721.38
2023-04-15T21:15:15.124Z,90711.63
2023-04-15T21:18:18.257Z,90711.69
2023-04-15T21:21:21.473Z,90708.44
2023-04-15T21:24:24.726Z,90713.03
2023-04-15T21:27:27.930Z,90706.53
2023-04-15T21:30:31.099Z,90702.69
2023-04-15T21:33:34.202Z,90698.19
2023-04-15T21:36:38.572Z,90687.09
2023-04-15T21:39:41.902Z,90692.31
2023-04-15T21:42:47.812Z,90692.88
2023-04-15T21:46:21.213Z,90684.44
2023-04-15T21:49:14.582Z,90683.13
2023-04-15T21:52:18.309Z,90689.63
2023-04-15T21:55:21.741Z,90686.38
2023-04-15T21:58:25.030Z,90687.00
2023-04-15T22:01:28.357Z,90682.44
2023-04-15T22:04:31.631Z,90671.31
2023-04-15T22:07:35.031Z,90659.56
2023-04-15T22:10:41.519Z,90658.16
2023-04-15T22:13:44.602Z,90652.91
2023-04-15T22:16:47.777Z,90643.03
2023-04-15T22:19:50.934Z,90650.16
2023-04-15T22:22:54.522Z,90653.81
2023-04-15T22:25:57.843Z,90652.38
2023-04-15T22:29:01.045Z,90650.25
2023-04-15T22:32:04.216Z,90643.66
2023-04-15T22:35:07.840Z,90649.47
2023-04-15T22:38:10.992Z,90638.38
2023-04-15T22:41:14.123Z,90632.44
2023-04-15T22:44:17.362Z,90634.25
2023-04-15T22:47:20.633Z,90632.97
2023-04-15T22:50:23.828Z,90640.88
2023-04-15T22:53:27.118Z,90640.22
2023-04-15T22:56:30.339Z,90641.41
2023-04-15T22:59:36.585Z,90644.56
2023-04-15T23:02:39.839Z,90633.47
2023-04-15T23:05:43.223Z,90630.16
2023-04-15T23:08:46.623Z,90649.66
2023-04-15T23:11:50.663Z,90643.13
2023-04-15T23:14:53.807Z,90650.84
2023-04-15T23:17:57.030Z,90636.53
2023-04-15T23:21:00.179Z,90648.09
2023-04-15T23:24:03.352Z,90642.72
2023-04-15T23:27:06.652Z,90650.31
2023-04-15T23:30:10.047Z,90647.50
2023-04-15T23:33:13.264Z,90653.25
2023-04-15T23:36:16.861Z,90663.69
2023-04-15T23:39:19.951Z,90673.31
2023-04-15T23:42:23.890Z,90674.44
2023-04-15T23:45:27.009Z,90675.59
2023-04-15T23:48:30.822Z,90686.50
2023-04-15T23:51:34.005Z,90683.09
2023-04-15T23:54:37.142Z,90688.13
2023-04-15T23:57:41.712Z,90680.22
